sensor_id;sensor_type;location;lat;lon;timestamp;pressure;altitude;pressure_sealevel;temperature;humidity
29549;BME280;16487;53.094;8.800;2022-09-30T00:02:17;100924.16;;;10.31;100.00
29549;BME280;16487;53.094;8.800;2022-09-30T00:04:45;100935.47;;;10.24;100.00
29549;BME280;16487;53.094;8.800;2022-09-30T00:07:12;100932.44;;;10.19;100.00
29549;BME280;16487;53.094;8.800;2022-09-30T00:09:39;100946.53;;;10.12;100.00
29549;BME280;16487;53.094;8.800;2022-09-30T00:12:06;100950.88;;;10.13;100.00
29549;BME280;16487;53.094;8.800;2022-09-30T00:14:35;100956.13;;;10.11;100.00
29549;BME280;16487;53.094;8.800;2022-09-30T00:17:02;100962.50;;;9.92;100.00
29549;BME280;16487;53.094;8.800;2022-09-30T00:19:30;100978.34;;;9.95;100.00
29549;BME280;16487;53.094;8.800;2022-09-30T00:21:57;100986.25;;;9.96;100.00
29549;BME280;16487;53.094;8.800;2022-09-30T00:24:24;100998.25;;;9.93;100.00
29549;BME280;16487;53.094;8.800;2022-09-30T00:26:52;101006.88;;;9.99;100.00
29549;BME280;16487;53.094;8.800;2022-09-30T00:29:19;101012.47;;;9.99;100.00
29549;BME280;16487;53.094;8.800;2022-09-30T00:31:47;101013.31;;;9.96;100.00
29549;BME280;16487;53.094;8.800;2022-09-30T00:34:15;101018.88;;;9.96;100.00
29549;BME280;16487;53.094;8.800;2022-09-30T00:36:44;101023.75;;;9.92;100.00
29549;BME280;16487;53.094;8.800;2022-09-30T00:39:13;101034.09;;;9.91;100.00
29549;BME280;16487;53.094;8.800;2022-09-30T00:41:41;101038.19;;;9.87;100.00
29549;BME280;16487;53.094;8.800;2022-09-30T00:47:24;101063.72;;;9.82;100.00
29549;BME280;16487;53.094;8.800;2022-09-30T00:49:54;101070.94;;;9.79;100.00
29549;BME280;16487;53.094;8.800;2022-09-30T00:52:23;101072.94;;;9.79;100.00
29549;BME280;16487;53.094;8.800;2022-09-30T00:54:51;101081.66;;;9.81;100.00
29549;BME280;16487;53.094;8.800;2022-09-30T00:57:19;101090.06;;;9.77;100.00
29549;BME280;16487;53.094;8.800;2022-09-30T00:59:49;101086.16;;;9.75;100.00
29549;BME280;16487;53.094;8.800;2022-09-30T01:02:18;101098.00;;;9.79;100.00
29549;BME280;16487;53.094;8.800;2022-09-30T01:04:46;101116.19;;;9.64;100.00
29549;BME280;16487;53.094;8.800;2022-09-30T01:07:14;101114.47;;;9.70;100.00
29549;BME280;16487;53.094;8.800;2022-09-30T01:09:41;101124.69;;;9.76;100.00
29549;BME280;16487;53.094;8.800;2022-09-30T01:12:11;101128.25;;;9.77;100.00
29549;BME280;16487;53.094;8.800;2022-09-30T01:14:40;101124.41;;;9.71;100.00
29549;BME280;16487;53.094;8.800;2022-09-30T01:17:10;101130.78;;;9.71;100.00
29549;BME280;16487;53.094;8.800;2022-09-30T01:20:02;101133.56;;;9.71;100.00
29549;BME280;16487;53.094;8.800;2022-09-30T01:22:39;101137.22;;;9.65;100.00
29549;BME280;16487;53.094;8.800;2022-09-30T01:31:29;101141.31;;;9.60;100.00
29549;BME280;16487;53.094;8.800;2022-09-30T01:34:05;101152.50;;;9.57;100.00
29549;BME280;16487;53.094;8.800;2022-09-30T01:36:45;101146.50;;;9.58;100.00
29549;BME280;16487;53.094;8.800;2022-09-30T01:39:26;101151.28;;;9.58;100.00
29549;BME280;16487;53.094;8.800;2022-09-30T01:41:58;101145.31;;;9.59;100.00
29549;BME280;16487;53.094;8.800;2022-09-30T01:44:34;101149.09;;;9.69;100.00
29549;BME280;16487;53.094;8.800;2022-09-30T01:47:11;101144.38;;;9.66;100.00
29549;BME280;16487;53.094;8.800;2022-09-30T01:49:46;101142.81;;;9.65;100.00
29549;BME280;16487;53.094;8.800;2022-09-30T01:52:22;101144.38;;;9.66;100.00
29549;BME280;16487;53.094;8.800;2022-09-30T01:54:55;101142.72;;;9.68;100.00
29549;BME280;16487;53.094;8.800;2022-09-30T01:57:27;101153.78;;;9.72;100.00
29549;BME280;16487;53.094;8.800;2022-09-30T02:00:00;101153.09;;;9.68;100.00
29549;BME280;16487;53.094;8.800;2022-09-30T02:02:40;101153.78;;;9.72;100.00
29549;BME280;16487;53.094;8.800;2022-09-30T02:05:13;101154.53;;;9.76;100.00
29549;BME280;16487;53.094;8.800;2022-09-30T02:07:46;101146.19;;;9.76;100.00
29549;BME280;16487;53.094;8.800;2022-09-30T02:10:17;101138.19;;;9.78;100.00
29549;BME280;16487;53.094;8.800;2022-09-30T02:12:49;101127.41;;;9.80;100.00
29549;BME280;16487;53.094;8.800;2022-09-30T02:15:21;101117.84;;;9.81;100.00
29549;BME280;16487;53.094;8.800;2022-09-30T02:17:52;101114.00;;;9.75;100.00
29549;BME280;16487;53.094;8.800;2022-09-30T02:20:25;101114.31;;;9.77;100.00
29549;BME280;16487;53.094;8.800;2022-09-30T02:23:01;101107.22;;;9.76;100.00
29549;BME280;16487;53.094;8.800;2022-09-30T02:25:31;101108.13;;;9.69;100.00
29549;BME280;16487;53.094;8.800;2022-09-30T02:28:02;101103.69;;;9.72;100.00
29549;BME280;16487;53.094;8.800;2022-09-30T02:30:32;101099.88;;;9.66;100.00
29549;BME280;16487;53.094;8.800;2022-09-30T02:33:03;101093.56;;;9.62;100.00
29549;BME280;16487;53.094;8.800;2022-09-30T02:35:35;101100.00;;;9.59;100.00
29549;BME280;16487;53.094;8.800;2022-09-30T02:38:09;101089.22;;;9.61;100.00
29549;BME280;16487;53.094;8.800;2022-09-30T02:40:42;101087.78;;;9.53;100.00
29549;BME280;16487;53.094;8.800;2022-09-30T02:43:10;101090.56;;;9.53;100.00
29549;BME280;16487;53.094;8.800;2022-09-30T02:45:42;101102.50;;;9.53;100.00
29549;BME280;16487;53.094;8.800;2022-09-30T02:48:23;101091.44;;;9.50;100.00
29549;BME280;16487;53.094;8.800;2022-09-30T02:50:55;101096.28;;;9.46;100.00
29549;BME280;16487;53.094;8.800;2022-09-30T02:53:30;101097.13;;;9.43;100.00
29549;BME280;16487;53.094;8.800;2022-09-30T02:56:18;101094.84;;;9.38;100.00
29549;BME280;16487;53.094;8.800;2022-09-30T02:58:48;101096.41;;;9.39;100.00
29549;BME280;16487;53.094;8.800;2022-09-30T03:01:17;101100.47;;;9.34;100.00
29549;BME280;16487;53.094;8.800;2022-09-30T03:03:48;101098.13;;;9.33;100.00
29549;BME280;16487;53.094;8.800;2022-09-30T03:06:17;101098.97;;;9.30;100.00
29549;BME280;16487;53.094;8.800;2022-09-30T03:08:44;101097.88;;;9.23;100.00
29549;BME280;16487;53.094;8.800;2022-09-30T03:11:14;101103.94;;;9.18;100.00
29549;BME280;16487;53.094;8.800;2022-09-30T03:14:18;101111.84;;;9.20;100.00
29549;BME280;16487;53.094;8.800;2022-09-30T03:16:59;101115.00;;;9.22;100.00
29549;BME280;16487;53.094;8.800;2022-09-30T03:19:43;101112.28;;;9.18;100.00
29549;BME280;16487;53.094;8.800;2022-09-30T03:25:17;101127.88;;;9.12;100.00
29549;BME280;16487;53.094;8.800;2022-09-30T03:27:57;101134.16;;;9.16;100.00
29549;BME280;16487;53.094;8.800;2022-09-30T03:30:31;101141.25;;;9.21;100.00
29549;BME280;16487;53.094;8.800;2022-09-30T03:33:08;101136.47;;;9.21;100.00
29549;BME280;16487;53.094;8.800;2022-09-30T03:35:45;101139.72;;;9.16;100.00
29549;BME280;16487;53.094;8.800;2022-09-30T03:38:24;101148.44;;;9.18;100.00
29549;BME280;16487;53.094;8.800;2022-09-30T03:41:01;101142.13;;;9.14;100.00
29549;BME280;16487;53.094;8.800;2022-09-30T03:43:32;101155.69;;;9.12;100.00
29549;BME280;16487;53.094;8.800;2022-09-30T03:46:05;101155.81;;;9.05;100.00
29549;BME280;16487;53.094;8.800;2022-09-30T03:48:37;101160.66;;;9.01;100.00
29549;BME280;16487;53.094;8.800;2022-09-30T03:51:08;101161.50;;;8.98;100.00
29549;BME280;16487;53.094;8.800;2022-09-30T03:53:39;101163.13;;;8.96;100.00
29549;BME280;16487;53.094;8.800;2022-09-30T03:56:06;101163.19;;;8.92;100.00
29549;BME280;16487;53.094;8.800;2022-09-30T03:58:42;101167.94;;;8.92;100.00
29549;BME280;16487;53.094;8.800;2022-09-30T04:01:16;101187.50;;;8.85;100.00
29549;BME280;16487;53.094;8.800;2022-09-30T04:03:44;101192.63;;;8.90;100.00
29549;BME280;16487;53.094;8.800;2022-09-30T04:06:13;101202.09;;;8.92;100.00
29549;BME280;16487;53.094;8.800;2022-09-30T04:08:40;101206.13;;;8.88;100.00
29549;BME280;16487;53.094;8.800;2022-09-30T04:11:08;101212.88;;;8.87;100.00
29549;BME280;16487;53.094;8.800;2022-09-30T04:13:35;101221.19;;;8.90;100.00
29549;BME280;16487;53.094;8.800;2022-09-30T04:16:03;101231.59;;;8.86;100.00
29549;BME280;16487;53.094;8.800;2022-09-30T04:18:30;101231.59;;;8.86;100.00
29549;BME280;16487;53.094;8.800;2022-09-30T04:20:57;101234.75;;;8.85;100.00
29549;BME280;16487;53.094;8.800;2022-09-30T04:23:26;101236.78;;;8.84;100.00
29549;BME280;16487;53.094;8.800;2022-09-30T04:25:54;101248.41;;;8.76;100.00
29549;BME280;16487;53.094;8.800;2022-09-30T04:28:21;101248.44;;;8.72;100.00
29549;BME280;16487;53.094;8.800;2022-09-30T04:30:49;101259.19;;;8.70;100.00
29549;BME280;16487;53.094;8.800;2022-09-30T04:33:16;101258.88;;;8.65;100.00
29549;BME280;16487;53.094;8.800;2022-09-30T04:35:43;101274.03;;;8.60;100.00
29549;BME280;16487;53.094;8.800;2022-09-30T04:38:11;101264.47;;;8.61;100.00
29549;BME280;16487;53.094;8.800;2022-09-30T04:40:40;101274.84;;;8.57;100.00
29549;BME280;16487;53.094;8.800;2022-09-30T04:43:08;101287.97;;;8.57;100.00
29549;BME280;16487;53.094;8.800;2022-09-30T04:45:36;101297.00;;;8.61;100.00
29549;BME280;16487;53.094;8.800;2022-09-30T04:48:03;101309.75;;;8.58;100.00
29549;BME280;16487;53.094;8.800;2022-09-30T04:50:30;101318.47;;;8.60;100.00
29549;BME280;16487;53.094;8.800;2022-09-30T04:52:58;101327.19;;;8.62;100.00
29549;BME280;16487;53.094;8.800;2022-09-30T04:55:25;101332.78;;;8.59;100.00
29549;BME280;16487;53.094;8.800;2022-09-30T04:57:54;101334.38;;;8.56;100.00
29549;BME280;16487;53.094;8.800;2022-09-30T05:00:22;101341.94;;;8.56;100.00
29549;BME280;16487;53.094;8.800;2022-09-30T05:02:49;101353.81;;;8.60;100.00
29549;BME280;16487;53.094;8.800;2022-09-30T05:05:17;101355.31;;;8.64;100.00
29549;BME280;16487;53.094;8.800;2022-09-30T05:07:44;101355.78;;;8.59;100.00
29549;BME280;16487;53.094;8.800;2022-09-30T05:10:11;101362.97;;;8.57;100.00
29549;BME280;16487;53.094;8.800;2022-09-30T05:12:39;101364.53;;;8.58;100.00
29549;BME280;16487;53.094;8.800;2022-09-30T05:15:08;101371.34;;;8.53;100.00
29549;BME280;16487;53.094;8.800;2022-09-30T05:17:36;101376.47;;;8.55;100.00
29549;BME280;16487;53.094;8.800;2022-09-30T05:20:04;101373.28;;;8.56;100.00
29549;BME280;16487;53.094;8.800;2022-09-30T05:22:31;101376.06;;;8.56;100.00
29549;BME280;16487;53.094;8.800;2022-09-30T05:24:58;101385.19;;;8.57;100.00
29549;BME280;16487;53.094;8.800;2022-09-30T05:27:26;101388.41;;;8.55;100.00
29549;BME280;16487;53.094;8.800;2022-09-30T05:29:53;101401.06;;;8.56;99.66
29549;BME280;16487;53.094;8.800;2022-09-30T05:32:22;101403.09;;;8.52;99.90
29549;BME280;16487;53.094;8.800;2022-09-30T05:34:49;101406.59;;;8.60;98.58
29549;BME280;16487;53.094;8.800;2022-09-30T05:37:16;101412.16;;;8.60;98.36
29549;BME280;16487;53.094;8.800;2022-09-30T05:39:44;101409.78;;;8.58;97.82
29549;BME280;16487;53.094;8.800;2022-09-30T05:42:11;101418.13;;;8.58;97.80
29549;BME280;16487;53.094;8.800;2022-09-30T05:44:40;101414.50;;;8.61;97.45
29549;BME280;16487;53.094;8.800;2022-09-30T05:47:07;101414.13;;;8.59;97.52
29549;BME280;16487;53.094;8.800;2022-09-30T05:49:36;101410.53;;;8.62;97.44
29549;BME280;16487;53.094;8.800;2022-09-30T05:52:03;101418.50;;;8.60;97.24
29549;BME280;16487;53.094;8.800;2022-09-30T05:54:31;101416.50;;;8.61;96.91
29549;BME280;16487;53.094;8.800;2022-09-30T05:56:58;101416.03;;;8.66;96.57
29549;BME280;16487;53.094;8.800;2022-09-30T05:59:25;101417.63;;;8.67;96.48
29549;BME280;16487;53.094;8.800;2022-09-30T06:01:53;101424.44;;;8.62;96.72
29549;BME280;16487;53.094;8.800;2022-09-30T06:04:20;101416.84;;;8.66;96.73
29549;BME280;16487;53.094;8.800;2022-09-30T06:06:49;101419.59;;;8.66;96.77
29549;BME280;16487;53.094;8.800;2022-09-30T06:09:16;101419.22;;;8.64;96.72
29549;BME280;16487;53.094;8.800;2022-09-30T06:11:44;101421.56;;;8.69;96.78
29549;BME280;16487;53.094;8.800;2022-09-30T06:14:11;101420.81;;;8.65;97.50
29549;BME280;16487;53.094;8.800;2022-09-30T06:16:38;101421.59;;;8.66;97.50
29549;BME280;16487;53.094;8.800;2022-09-30T06:19:06;101417.59;;;8.70;97.04
29549;BME280;16487;53.094;8.800;2022-09-30T06:21:33;101416.38;;;8.71;97.56
29549;BME280;16487;53.094;8.800;2022-09-30T06:24:02;101421.16;;;8.71;97.46
29549;BME280;16487;53.094;8.800;2022-09-30T06:26:29;101408.03;;;8.71;97.67
29549;BME280;16487;53.094;8.800;2022-09-30T06:28:56;101415.09;;;8.79;97.29
29549;BME280;16487;53.094;8.800;2022-09-30T06:31:23;101412.69;;;8.81;97.53
29549;BME280;16487;53.094;8.800;2022-09-30T06:33:51;101413.44;;;8.85;97.79
29549;BME280;16487;53.094;8.800;2022-09-30T06:36:19;101409.47;;;8.86;97.91
29549;BME280;16487;53.094;8.800;2022-09-30T06:38:47;101402.28;;;8.89;98.52
29549;BME280;16487;53.094;8.800;2022-09-30T06:41:16;101402.16;;;8.99;98.83
29549;BME280;16487;53.094;8.800;2022-09-30T06:43:43;101401.84;;;8.90;99.99
29549;BME280;16487;53.094;8.800;2022-09-30T06:46:23;101391.16;;;8.89;100.00
29549;BME280;16487;53.094;8.800;2022-09-30T06:48:57;101385.56;;;8.92;100.00
29549;BME280;16487;53.094;8.800;2022-09-30T06:51:38;101368.81;;;8.96;100.00
29549;BME280;16487;53.094;8.800;2022-09-30T06:54:05;101353.66;;;9.00;100.00
29549;BME280;16487;53.094;8.800;2022-09-30T06:56:34;101357.56;;;9.06;100.00
29549;BME280;16487;53.094;8.800;2022-09-30T06:59:01;101342.91;;;9.02;100.00
29549;BME280;16487;53.094;8.800;2022-09-30T07:01:28;101336.06;;;9.10;100.00
29549;BME280;16487;53.094;8.800;2022-09-30T07:03:56;101327.25;;;9.15;100.00
29549;BME280;16487;53.094;8.800;2022-09-30T07:06:24;101317.97;;;9.25;100.00
29549;BME280;16487;53.094;8.800;2022-09-30T07:08:51;101308.66;;;9.36;100.00
29549;BME280;16487;53.094;8.800;2022-09-30T07:11:19;101297.81;;;9.45;100.00
29549;BME280;16487;53.094;8.800;2022-09-30T07:13:47;101292.06;;;9.55;100.00
29549;BME280;16487;53.094;8.800;2022-09-30T07:16:16;101284.56;;;9.52;100.00
29549;BME280;16487;53.094;8.800;2022-09-30T07:18:44;101279.72;;;9.56;100.00
29549;BME280;16487;53.094;8.800;2022-09-30T07:21:13;101266.28;;;9.51;100.00
29549;BME280;16487;53.094;8.800;2022-09-30T07:23:41;101261.41;;;9.59;100.00
29549;BME280;16487;53.094;8.800;2022-09-30T07:26:08;101254.78;;;9.72;100.00
29549;BME280;16487;53.094;8.800;2022-09-30T07:28:36;101240.44;;;9.74;100.00
29549;BME280;16487;53.094;8.800;2022-09-30T07:31:09;101224.78;;;9.83;100.00
29549;BME280;16487;53.094;8.800;2022-09-30T07:33:56;101216.97;;;9.94;100.00
29549;BME280;16487;53.094;8.800;2022-09-30T07:36:24;101216.91;;;9.98;100.00
29549;BME280;16487;53.094;8.800;2022-09-30T07:39:00;101204.84;;;10.04;100.00
29549;BME280;16487;53.094;8.800;2022-09-30T07:41:28;101195.94;;;10.13;100.00
29549;BME280;16487;53.094;8.800;2022-09-30T07:43:56;101180.59;;;10.24;100.00
29549;BME280;16487;53.094;8.800;2022-09-30T07:46:28;101173.38;;;10.27;100.00
29549;BME280;16487;53.094;8.800;2022-09-30T07:48:58;101163.66;;;10.35;100.00
29549;BME280;16487;53.094;8.800;2022-09-30T07:51:27;101149.22;;;10.40;100.00
29549;BME280;16487;53.094;8.800;2022-09-30T07:53:58;101139.81;;;10.50;100.00
29549;BME280;16487;53.094;8.800;2022-09-30T07:56:26;101132.69;;;10.65;100.00
29549;BME280;16487;53.094;8.800;2022-09-30T07:59:11;101121.22;;;10.79;100.00
29549;BME280;16487;53.094;8.800;2022-09-30T08:01:40;101114.66;;;10.86;100.00
29549;BME280;16487;53.094;8.800;2022-09-30T08:04:08;101102.41;;;10.99;100.00
29549;BME280;16487;53.094;8.800;2022-09-30T08:06:38;101088.41;;;11.15;100.00
29549;BME280;16487;53.094;8.800;2022-09-30T08:09:07;101082.44;;;11.29;100.00
29549;BME280;16487;53.094;8.800;2022-09-30T08:11:36;101070.22;;;11.39;100.00
29549;BME280;16487;53.094;8.800;2022-09-30T08:14:04;101050.47;;;11.46;100.00
29549;BME280;16487;53.094;8.800;2022-09-30T08:16:31;101037.34;;;11.60;100.00
29549;BME280;16487;53.094;8.800;2022-09-30T08:19:01;101028.09;;;11.63;100.00
29549;BME280;16487;53.094;8.800;2022-09-30T08:21:28;101021.44;;;11.73;100.00
29549;BME280;16487;53.094;8.800;2022-09-30T08:23:56;101019.13;;;11.84;100.00
29549;BME280;16487;53.094;8.800;2022-09-30T08:26:23;101019.13;;;11.96;100.00
29549;BME280;16487;53.094;8.800;2022-09-30T08:28:51;101000.69;;;11.99;100.00
29549;BME280;16487;53.094;8.800;2022-09-30T08:31:20;101003.38;;;12.15;100.00
29549;BME280;16487;53.094;8.800;2022-09-30T08:33:48;100985.13;;;12.23;100.00
29549;BME280;16487;53.094;8.800;2022-09-30T08:36:19;100989.94;;;12.35;100.00
29549;BME280;16487;53.094;8.800;2022-09-30T08:38:47;100980.84;;;12.43;100.00
29549;BME280;16487;53.094;8.800;2022-09-30T08:41:23;100983.41;;;12.63;100.00
29549;BME280;16487;53.094;8.800;2022-09-30T08:44:05;100976.81;;;12.57;100.00
29549;BME280;16487;53.094;8.800;2022-09-30T08:46:43;100974.91;;;12.54;100.00
29549;BME280;16487;53.094;8.800;2022-09-30T08:49:27;100970.97;;;12.64;100.00
29549;BME280;16487;53.094;8.800;2022-09-30T08:52:00;100969.25;;;12.79;100.00
29549;BME280;16487;53.094;8.800;2022-09-30T08:54:31;100972.38;;;12.81;100.00
29549;BME280;16487;53.094;8.800;2022-09-30T08:57:06;100983.56;;;12.81;100.00
29549;BME280;16487;53.094;8.800;2022-09-30T08:59:39;100974.09;;;13.00;100.00
29549;BME280;16487;53.094;8.800;2022-09-30T09:02:15;100975.56;;;13.05;100.00
29549;BME280;16487;53.094;8.800;2022-09-30T09:04:45;100974.78;;;13.26;100.00
29549;BME280;16487;53.094;8.800;2022-09-30T09:07:24;100979.59;;;13.25;100.00
29549;BME280;16487;53.094;8.800;2022-09-30T09:10:06;100976.34;;;13.05;100.00
29549;BME280;16487;53.094;8.800;2022-09-30T09:12:44;100978.81;;;13.03;100.00
29549;BME280;16487;53.094;8.800;2022-09-30T09:15:24;100975.75;;;13.10;100.00
29549;BME280;16487;53.094;8.800;2022-09-30T09:18:18;100976.13;;;13.21;100.00
29549;BME280;16487;53.094;8.800;2022-09-30T09:20:54;100971.94;;;13.38;100.00
29549;BME280;16487;53.094;8.800;2022-09-30T09:23:23;100976.69;;;13.59;100.00
29549;BME280;16487;53.094;8.800;2022-09-30T09:25:51;100975.81;;;13.62;100.00
29549;BME280;16487;53.094;8.800;2022-09-30T09:28:30;100978.63;;;13.71;100.00
29549;BME280;16487;53.094;8.800;2022-09-30T09:31:01;100978.34;;;13.78;100.00
29549;BME280;16487;53.094;8.800;2022-09-30T09:33:30;100980.94;;;13.95;100.00
29549;BME280;16487;53.094;8.800;2022-09-30T09:36:07;100974.69;;;13.91;100.00
29549;BME280;16487;53.094;8.800;2022-09-30T09:38:54;100964.97;;;14.13;100.00
29549;BME280;16487;53.094;8.800;2022-09-30T09:41:35;100965.66;;;14.26;100.00
29549;BME280;16487;53.094;8.800;2022-09-30T09:44:13;100970.41;;;14.08;100.00
29549;BME280;16487;53.094;8.800;2022-09-30T09:46:47;100977.19;;;13.98;100.00
29549;BME280;16487;53.094;8.800;2022-09-30T09:49:27;100970.38;;;13.99;100.00
29549;BME280;16487;53.094;8.800;2022-09-30T09:52:26;100990.38;;;14.19;100.00
29549;BME280;16487;53.094;8.800;2022-09-30T09:54:59;100970.84;;;14.46;100.00
29549;BME280;16487;53.094;8.800;2022-09-30T09:57:30;100968.38;;;14.66;100.00
29549;BME280;16487;53.094;8.800;2022-09-30T09:59:59;100969.34;;;14.81;100.00
29549;BME280;16487;53.094;8.800;2022-09-30T10:02:32;100966.44;;;14.27;100.00
29549;BME280;16487;53.094;8.800;2022-09-30T10:04:59;100967.16;;;14.76;100.00
29549;BME280;16487;53.094;8.800;2022-09-30T10:07:28;100961.56;;;14.94;100.00
29549;BME280;16487;53.094;8.800;2022-09-30T10:10:11;100960.00;;;16.22;100.00
29549;BME280;16487;53.094;8.800;2022-09-30T10:12:49;100961.47;;;17.55;100.00
29549;BME280;16487;53.094;8.800;2022-09-30T10:15:20;100951.41;;;18.87;100.00
29549;BME280;16487;53.094;8.800;2022-09-30T10:17:52;100957.75;;;18.62;100.00
29549;BME280;16487;53.094;8.800;2022-09-30T10:20:26;100968.31;;;18.12;100.00
29549;BME280;16487;53.094;8.800;2022-09-30T10:23:06;100979.09;;;17.27;100.00
29549;BME280;16487;53.094;8.800;2022-09-30T10:25:35;100973.03;;;17.04;100.00
29549;BME280;16487;53.094;8.800;2022-09-30T10:28:19;100973.41;;;17.65;100.00
29549;BME280;16487;53.094;8.800;2022-09-30T10:30:50;100974.53;;;18.51;100.00
29549;BME280;16487;53.094;8.800;2022-09-30T10:33:26;100973.88;;;18.07;100.00
29549;BME280;16487;53.094;8.800;2022-09-30T10:36:09;100977.72;;;17.75;100.00
29549;BME280;16487;53.094;8.800;2022-09-30T10:38:46;100967.78;;;18.28;100.00
29549;BME280;16487;53.094;8.800;2022-09-30T10:41:22;100957.28;;;18.29;100.00
29549;BME280;16487;53.094;8.800;2022-09-30T10:43:52;100976.31;;;17.41;100.00
29549;BME280;16487;53.094;8.800;2022-09-30T10:46:22;100978.00;;;17.62;100.00
29549;BME280;16487;53.094;8.800;2022-09-30T10:48:55;100974.03;;;17.16;100.00
29549;BME280;16487;53.094;8.800;2022-09-30T10:51:25;100973.66;;;17.23;100.00
29549;BME280;16487;53.094;8.800;2022-09-30T10:53:54;100974.25;;;18.14;100.00
29549;BME280;16487;53.094;8.800;2022-09-30T10:56:41;100969.53;;;18.41;100.00
29549;BME280;16487;53.094;8.800;2022-09-30T10:59:15;100973.66;;;18.10;100.00
29549;BME280;16487;53.094;8.800;2022-09-30T11:01:49;100970.22;;;17.86;100.00
29549;BME280;16487;53.094;8.800;2022-09-30T11:04:27;100971.56;;;17.91;100.00
29549;BME280;16487;53.094;8.800;2022-09-30T11:07:02;100959.66;;;18.71;100.00
29549;BME280;16487;53.094;8.800;2022-09-30T11:09:45;100970.97;;;18.01;100.00
29549;BME280;16487;53.094;8.800;2022-09-30T11:12:19;100970.97;;;16.90;100.00
29549;BME280;16487;53.094;8.800;2022-09-30T11:14:55;100972.38;;;17.62;100.00
29549;BME280;16487;53.094;8.800;2022-09-30T11:17:32;100965.50;;;18.12;100.00
29549;BME280;16487;53.094;8.800;2022-09-30T11:20:11;100960.06;;;17.94;100.00
29549;BME280;16487;53.094;8.800;2022-09-30T11:22:45;100964.56;;;17.86;100.00
29549;BME280;16487;53.094;8.800;2022-09-30T11:25:19;100955.06;;;18.53;100.00
29549;BME280;16487;53.094;8.800;2022-09-30T11:28:10;100957.38;;;18.95;100.00
29549;BME280;16487;53.094;8.800;2022-09-30T11:30:46;100953.56;;;19.18;100.00
29549;BME280;16487;53.094;8.800;2022-09-30T11:33:34;100957.97;;;18.79;100.00
29549;BME280;16487;53.094;8.800;2022-09-30T11:36:12;100957.75;;;18.42;100.00
29549;BME280;16487;53.094;8.800;2022-09-30T11:39:02;100957.16;;;17.31;100.00
29549;BME280;16487;53.094;8.800;2022-09-30T11:41:35;100944.19;;;18.46;100.00
29549;BME280;16487;53.094;8.800;2022-09-30T11:44:18;100951.22;;;18.01;100.00
29549;BME280;16487;53.094;8.800;2022-09-30T11:47:00;100943.19;;;17.51;100.00
29549;BME280;16487;53.094;8.800;2022-09-30T11:52:53;100928.88;;;19.70;100.00
29549;BME280;16487;53.094;8.800;2022-09-30T11:55:34;100939.59;;;19.34;100.00
29549;BME280;16487;53.094;8.800;2022-09-30T11:58:06;100954.44;;;18.64;100.00
29549;BME280;16487;53.094;8.800;2022-09-30T12:00:59;100947.59;;;19.36;100.00
29549;BME280;16487;53.094;8.800;2022-09-30T12:03:34;100940.41;;;19.66;100.00
29549;BME280;16487;53.094;8.800;2022-09-30T12:06:09;100953.69;;;19.09;100.00
29549;BME280;16487;53.094;8.800;2022-09-30T12:08:44;100953.25;;;19.98;100.00
29549;BME280;16487;53.094;8.800;2022-09-30T12:11:17;100967.97;;;18.25;100.00
29549;BME280;16487;53.094;8.800;2022-09-30T12:13:50;100966.63;;;18.20;100.00
29549;BME280;16487;53.094;8.800;2022-09-30T12:16:23;100957.47;;;18.25;100.00
29549;BME280;16487;53.094;8.800;2022-09-30T12:18:55;100966.44;;;17.60;100.00
29549;BME280;16487;53.094;8.800;2022-09-30T12:21:27;100957.13;;;16.78;100.00
29549;BME280;16487;53.094;8.800;2022-09-30T12:23:59;100959.84;;;16.49;100.00
29549;BME280;16487;53.094;8.800;2022-09-30T12:26:29;100954.78;;;17.67;100.00
29549;BME280;16487;53.094;8.800;2022-09-30T12:29:02;100959.28;;;17.94;100.00
29549;BME280;16487;53.094;8.800;2022-09-30T12:31:51;100939.75;;;18.25;100.00
29549;BME280;16487;53.094;8.800;2022-09-30T12:34:33;100931.59;;;19.59;100.00
29549;BME280;16487;53.094;8.800;2022-09-30T12:37:21;100935.03;;;19.68;100.00
29549;BME280;16487;53.094;8.800;2022-09-30T12:40:14;100935.59;;;20.03;100.00
29549;BME280;16487;53.094;8.800;2022-09-30T12:42:56;100924.31;;;20.57;100.00
29549;BME280;16487;53.094;8.800;2022-09-30T12:45:50;100935.66;;;20.57;100.00
29549;BME280;16487;53.094;8.800;2022-09-30T12:48:27;100936.97;;;19.51;100.00
29549;BME280;16487;53.094;8.800;2022-09-30T12:50:56;100936.06;;;19.65;100.00
29549;BME280;16487;53.094;8.800;2022-09-30T12:53:26;100929.34;;;20.30;100.00
29549;BME280;16487;53.094;8.800;2022-09-30T12:56:01;100929.75;;;20.60;100.00
29549;BME280;16487;53.094;8.800;2022-09-30T12:58:31;100920.44;;;19.75;100.00
29549;BME280;16487;53.094;8.800;2022-09-30T13:01:03;100917.06;;;19.71;100.00
29549;BME280;16487;53.094;8.800;2022-09-30T13:04:08;100911.09;;;18.87;100.00
29549;BME280;16487;53.094;8.800;2022-09-30T13:07:11;100912.91;;;17.95;100.00
29549;BME280;16487;53.094;8.800;2022-09-30T13:09:59;100915.16;;;19.06;100.00
29549;BME280;16487;53.094;8.800;2022-09-30T13:12:39;100911.69;;;19.73;100.00
29549;BME280;16487;53.094;8.800;2022-09-30T13:21:22;100915.38;;;19.85;100.00
29549;BME280;16487;53.094;8.800;2022-09-30T13:23:50;100912.19;;;18.95;100.00
29549;BME280;16487;53.094;8.800;2022-09-30T13:26:37;100920.38;;;18.12;100.00
29549;BME280;16487;53.094;8.800;2022-09-30T13:29:36;100905.44;;;19.12;100.00
29549;BME280;16487;53.094;8.800;2022-09-30T13:32:08;100915.06;;;19.77;100.00
29549;BME280;16487;53.094;8.800;2022-09-30T13:34:54;100908.56;;;18.69;100.00
29549;BME280;16487;53.094;8.800;2022-09-30T13:37:44;100916.84;;;18.38;100.00